sensor_id;sensor_type;location;lat;lon;timestamp;temperature;humidity
44461;DHT22;30162;53.642;10.640;2022-10-18T00:00:53;18.80;95.10
44461;DHT22;30162;53.642;10.640;2022-10-18T00:03:19;18.90;95.10
44461;DHT22;30162;53.642;10.640;2022-10-18T00:05:46;18.80;95.10
44461;DHT22;30162;53.642;10.640;2022-10-18T00:08:12;18.80;95.00
44461;DHT22;30162;53.642;10.640;2022-10-18T00:10:37;18.60;95.10
44461;DHT22;30162;53.642;10.640;2022-10-18T00:13:03;18.60;95.40
44461;DHT22;30162;53.642;10.640;2022-10-18T00:15:28;18.50;95.40
44461;DHT22;30162;53.642;10.640;2022-10-18T00:17:54;18.60;95.30
44461;DHT22;30162;53.642;10.640;2022-10-18T00:20:19;18.60;95.30
44461;DHT22;30162;53.642;10.640;2022-10-18T00:22:45;18.60;95.10
44461;DHT22;30162;53.642;10.640;2022-10-18T00:25:10;18.50;95.30
44461;DHT22;30162;53.642;10.640;2022-10-18T00:27:36;18.50;95.30
44461;DHT22;30162;53.642;10.640;2022-10-18T00:30:03;18.50;95.40
44461;DHT22;30162;53.642;10.640;2022-10-18T00:32:28;18.60;95.20
44461;DHT22;30162;53.642;10.640;2022-10-18T00:34:54;18.60;95.30
44461;DHT22;30162;53.642;10.640;2022-10-18T00:37:19;18.40;95.50
44461;DHT22;30162;53.642;10.640;2022-10-18T00:39:45;18.50;95.50
44461;DHT22;30162;53.642;10.640;2022-10-18T00:42:20;18.50;95.40
44461;DHT22;30162;53.642;10.640;2022-10-18T00:47:16;18.50;95.20
44461;DHT22;30162;53.642;10.640;2022-10-18T00:49:48;18.60;95.20
44461;DHT22;30162;53.642;10.640;2022-10-18T00:52:21;18.60;95.10
44461;DHT22;30162;53.642;10.640;2022-10-18T00:54:48;18.50;95.10
44461;DHT22;30162;53.642;10.640;2022-10-18T00:57:14;18.50;95.30
44461;DHT22;30162;53.642;10.640;2022-10-18T00:59:40;18.50;95.20
44461;DHT22;30162;53.642;10.640;2022-10-18T01:02:07;18.50;95.30
44461;DHT22;30162;53.642;10.640;2022-10-18T01:04:33;18.50;95.20
44461;DHT22;30162;53.642;10.640;2022-10-18T01:07:04;18.50;95.20
44461;DHT22;30162;53.642;10.640;2022-10-18T01:14:55;18.40;95.20
44461;DHT22;30162;53.642;10.640;2022-10-18T01:17:38;18.40;95.40
44461;DHT22;30162;53.642;10.640;2022-10-18T01:20:30;18.40;95.30
44461;DHT22;30162;53.642;10.640;2022-10-18T01:23:14;18.40;95.10
44461;DHT22;30162;53.642;10.640;2022-10-18T01:25:53;18.30;95.40
44461;DHT22;30162;53.642;10.640;2022-10-18T01:31:13;18.20;95.50
44461;DHT22;30162;53.642;10.640;2022-10-18T01:33:47;18.10;95.60
44461;DHT22;30162;53.642;10.640;2022-10-18T01:36:22;18.00;95.60
44461;DHT22;30162;53.642;10.640;2022-10-18T01:38:52;18.00;95.40
44461;DHT22;30162;53.642;10.640;2022-10-18T01:41:21;18.00;95.60
44461;DHT22;30162;53.642;10.640;2022-10-18T01:43:51;18.10;95.80
44461;DHT22;30162;53.642;10.640;2022-10-18T01:46:21;18.10;95.60
44461;DHT22;30162;53.642;10.640;2022-10-18T01:48:48;18.00;95.60
44461;DHT22;30162;53.642;10.640;2022-10-18T01:51:14;18.10;95.60
44461;DHT22;30162;53.642;10.640;2022-10-18T01:53:39;18.00;95.50
44461;DHT22;30162;53.642;10.640;2022-10-18T02:00:14;17.90;95.30
44461;DHT22;30162;53.642;10.640;2022-10-18T02:04:59;17.80;95.50
44461;DHT22;30162;53.642;10.640;2022-10-18T02:07:33;17.80;95.50
44461;DHT22;30162;53.642;10.640;2022-10-18T02:10:11;17.80;95.50
44461;DHT22;30162;53.642;10.640;2022-10-18T02:12:41;17.70;95.40
44461;DHT22;30162;53.642;10.640;2022-10-18T02:15:09;17.70;95.40
44461;DHT22;30162;53.642;10.640;2022-10-18T02:17:37;17.60;95.40
44461;DHT22;30162;53.642;10.640;2022-10-18T02:20:05;17.60;95.50
44461;DHT22;30162;53.642;10.640;2022-10-18T02:22:34;17.70;95.40
44461;DHT22;30162;53.642;10.640;2022-10-18T02:25:04;17.60;95.40
44461;DHT22;30162;53.642;10.640;2022-10-18T02:27:30;17.70;95.40
44461;DHT22;30162;53.642;10.640;2022-10-18T02:29:57;17.60;95.30
44461;DHT22;30162;53.642;10.640;2022-10-18T02:32:32;17.60;95.20
44461;DHT22;30162;53.642;10.640;2022-10-18T02:37:37;17.60;95.40
44461;DHT22;30162;53.642;10.640;2022-10-18T02:40:05;17.60;95.40
44461;DHT22;30162;53.642;10.640;2022-10-18T02:42:36;17.50;95.30
44461;DHT22;30162;53.642;10.640;2022-10-18T02:45:03;17.60;95.40
44461;DHT22;30162;53.642;10.640;2022-10-18T02:47:29;17.50;95.30
44461;DHT22;30162;53.642;10.640;2022-10-18T02:49:54;17.50;95.30
44461;DHT22;30162;53.642;10.640;2022-10-18T02:52:20;17.40;95.50
44461;DHT22;30162;53.642;10.640;2022-10-18T02:54:45;17.40;95.40
44461;DHT22;30162;53.642;10.640;2022-10-18T02:57:11;17.40;95.60
44461;DHT22;30162;53.642;10.640;2022-10-18T02:59:36;17.20;95.50
44461;DHT22;30162;53.642;10.640;2022-10-18T03:02:02;17.20;95.70
44461;DHT22;30162;53.642;10.640;2022-10-18T03:04:27;17.30;95.50
44461;DHT22;30162;53.642;10.640;2022-10-18T03:06:53;17.30;95.60
44461;DHT22;30162;53.642;10.640;2022-10-18T03:09:18;17.20;95.60
44461;DHT22;30162;53.642;10.640;2022-10-18T03:11:44;17.10;95.50
44461;DHT22;30162;53.642;10.640;2022-10-18T03:14:09;17.10;95.50
44461;DHT22;30162;53.642;10.640;2022-10-18T03:16:35;17.00;95.40
44461;DHT22;30162;53.642;10.640;2022-10-18T03:19:00;16.90;95.50
44461;DHT22;30162;53.642;10.640;2022-10-18T03:21:26;16.90;95.60
44461;DHT22;30162;53.642;10.640;2022-10-18T03:23:51;16.80;95.60
44461;DHT22;30162;53.642;10.640;2022-10-18T03:26:17;16.80;95.50
44461;DHT22;30162;53.642;10.640;2022-10-18T03:28:43;16.80;95.50
44461;DHT22;30162;53.642;10.640;2022-10-18T03:31:08;16.70;95.50
44461;DHT22;30162;53.642;10.640;2022-10-18T03:33:34;16.60;95.50
44461;DHT22;30162;53.642;10.640;2022-10-18T03:35:59;16.50;95.50
44461;DHT22;30162;53.642;10.640;2022-10-18T03:38:25;16.40;95.60
44461;DHT22;30162;53.642;10.640;2022-10-18T03:40:50;16.40;95.70
44461;DHT22;30162;53.642;10.640;2022-10-18T03:43:16;16.40;96.10
44461;DHT22;30162;53.642;10.640;2022-10-18T03:45:42;16.40;96.00
44461;DHT22;30162;53.642;10.640;2022-10-18T03:48:07;16.30;95.90
44461;DHT22;30162;53.642;10.640;2022-10-18T03:50:33;16.40;96.10
44461;DHT22;30162;53.642;10.640;2022-10-18T03:52:58;16.30;96.00
44461;DHT22;30162;53.642;10.640;2022-10-18T03:55:24;16.40;96.20
44461;DHT22;30162;53.642;10.640;2022-10-18T03:57:49;16.40;96.10
44461;DHT22;30162;53.642;10.640;2022-10-18T04:00:15;16.50;96.00
44461;DHT22;30162;53.642;10.640;2022-10-18T04:02:40;16.40;96.10
44461;DHT22;30162;53.642;10.640;2022-10-18T04:05:07;16.40;96.20
44461;DHT22;30162;53.642;10.640;2022-10-18T04:07:34;16.40;96.00
44461;DHT22;30162;53.642;10.640;2022-10-18T04:09:59;16.40;96.20
44461;DHT22;30162;53.642;10.640;2022-10-18T04:12:25;16.40;96.10
44461;DHT22;30162;53.642;10.640;2022-10-18T04:14:51;16.60;96.10
44461;DHT22;30162;53.642;10.640;2022-10-18T04:17:16;16.60;95.90
44461;DHT22;30162;53.642;10.640;2022-10-18T04:19:42;16.70;95.90
44461;DHT22;30162;53.642;10.640;2022-10-18T04:22:08;16.70;95.90
44461;DHT22;30162;53.642;10.640;2022-10-18T04:24:33;16.70;96.00
44461;DHT22;30162;53.642;10.640;2022-10-18T04:26:59;16.80;95.70
44461;DHT22;30162;53.642;10.640;2022-10-18T04:29:24;16.90;95.80
44461;DHT22;30162;53.642;10.640;2022-10-18T04:31:50;16.90;95.70
44461;DHT22;30162;53.642;10.640;2022-10-18T04:34:15;17.00;96.00
44461;DHT22;30162;53.642;10.640;2022-10-18T04:36:41;17.00;96.00
44461;DHT22;30162;53.642;10.640;2022-10-18T04:39:06;17.00;96.00
44461;DHT22;30162;53.642;10.640;2022-10-18T04:41:32;17.00;96.00
44461;DHT22;30162;53.642;10.640;2022-10-18T04:43:58;17.00;95.90
44461;DHT22;30162;53.642;10.640;2022-10-18T04:46:23;17.00;95.90
44461;DHT22;30162;53.642;10.640;2022-10-18T04:48:49;17.10;95.80
44461;DHT22;30162;53.642;10.640;2022-10-18T04:51:14;17.00;95.40
44461;DHT22;30162;53.642;10.640;2022-10-18T04:53:40;16.90;95.70
44461;DHT22;30162;53.642;10.640;2022-10-18T04:56:06;17.00;95.60
44461;DHT22;30162;53.642;10.640;2022-10-18T04:58:31;16.90;95.50
44461;DHT22;30162;53.642;10.640;2022-10-18T05:00:57;16.80;95.50
44461;DHT22;30162;53.642;10.640;2022-10-18T05:03:22;16.90;95.70
44461;DHT22;30162;53.642;10.640;2022-10-18T05:05:48;16.90;96.00
44461;DHT22;30162;53.642;10.640;2022-10-18T05:08:14;17.00;95.90
44461;DHT22;30162;53.642;10.640;2022-10-18T05:10:39;17.00;95.70
44461;DHT22;30162;53.642;10.640;2022-10-18T05:13:05;17.00;95.70
44461;DHT22;30162;53.642;10.640;2022-10-18T05:15:30;17.00;96.00
44461;DHT22;30162;53.642;10.640;2022-10-18T05:17:56;17.00;95.70
44461;DHT22;30162;53.642;10.640;2022-10-18T05:20:21;17.00;95.40
44461;DHT22;30162;53.642;10.640;2022-10-18T05:22:47;17.00;95.80
44461;DHT22;30162;53.642;10.640;2022-10-18T05:25:12;16.90;95.80
44461;DHT22;30162;53.642;10.640;2022-10-18T05:27:38;16.90;95.90
44461;DHT22;30162;53.642;10.640;2022-10-18T05:30:04;17.10;95.70
44461;DHT22;30162;53.642;10.640;2022-10-18T05:32:29;17.00;95.50
44461;DHT22;30162;53.642;10.640;2022-10-18T05:34:55;16.90;95.90
44461;DHT22;30162;53.642;10.640;2022-10-18T05:37:20;16.90;95.80
44461;DHT22;30162;53.642;10.640;2022-10-18T05:39:46;16.90;96.00
44461;DHT22;30162;53.642;10.640;2022-10-18T05:42:12;17.00;95.90
44461;DHT22;30162;53.642;10.640;2022-10-18T05:44:37;17.00;95.80
44461;DHT22;30162;53.642;10.640;2022-10-18T05:47:03;17.10;96.10
44461;DHT22;30162;53.642;10.640;2022-10-18T05:49:28;17.10;95.70
44461;DHT22;30162;53.642;10.640;2022-10-18T05:51:54;17.00;95.70
44461;DHT22;30162;53.642;10.640;2022-10-18T05:54:20;16.90;95.80
44461;DHT22;30162;53.642;10.640;2022-10-18T05:56:45;16.90;95.80
44461;DHT22;30162;53.642;10.640;2022-10-18T05:59:11;16.90;95.80
44461;DHT22;30162;53.642;10.640;2022-10-18T06:01:38;16.90;95.80
44461;DHT22;30162;53.642;10.640;2022-10-18T06:04:04;16.90;95.60
44461;DHT22;30162;53.642;10.640;2022-10-18T06:06:31;16.80;95.60
44461;DHT22;30162;53.642;10.640;2022-10-18T06:08:57;16.70;95.80
44461;DHT22;30162;53.642;10.640;2022-10-18T06:11:23;16.70;95.90
44461;DHT22;30162;53.642;10.640;2022-10-18T06:13:49;16.80;95.90
44461;DHT22;30162;53.642;10.640;2022-10-18T06:16:20;16.70;96.00
44461;DHT22;30162;53.642;10.640;2022-10-18T06:18:47;16.80;95.90
44461;DHT22;30162;53.642;10.640;2022-10-18T06:21:14;16.80;96.30
44461;DHT22;30162;53.642;10.640;2022-10-18T06:23:40;16.90;96.00
44461;DHT22;30162;53.642;10.640;2022-10-18T06:26:09;16.90;96.00
44461;DHT22;30162;53.642;10.640;2022-10-18T06:28:35;17.00;95.90
44461;DHT22;30162;53.642;10.640;2022-10-18T06:31:01;17.00;95.90
44461;DHT22;30162;53.642;10.640;2022-10-18T06:33:29;17.10;95.90
44461;DHT22;30162;53.642;10.640;2022-10-18T06:36:14;17.00;96.00
44461;DHT22;30162;53.642;10.640;2022-10-18T06:38:40;17.10;96.00
44461;DHT22;30162;53.642;10.640;2022-10-18T06:41:07;17.10;96.00
44461;DHT22;30162;53.642;10.640;2022-10-18T06:43:33;17.10;96.00
44461;DHT22;30162;53.642;10.640;2022-10-18T06:46:00;17.10;96.00
44461;DHT22;30162;53.642;10.640;2022-10-18T06:48:27;17.20;96.10
44461;DHT22;30162;53.642;10.640;2022-10-18T06:50:55;17.20;96.00
44461;DHT22;30162;53.642;10.640;2022-10-18T06:53:22;17.30;95.90
44461;DHT22;30162;53.642;10.640;2022-10-18T06:55:47;17.40;95.90
44461;DHT22;30162;53.642;10.640;2022-10-18T06:58:13;17.50;95.90
44461;DHT22;30162;53.642;10.640;2022-10-18T07:00:39;17.50;95.80
44461;DHT22;30162;53.642;10.640;2022-10-18T07:03:04;17.60;95.50
44461;DHT22;30162;53.642;10.640;2022-10-18T07:05:30;17.60;95.50
44461;DHT22;30162;53.642;10.640;2022-10-18T07:07:56;17.50;95.70
44461;DHT22;30162;53.642;10.640;2022-10-18T07:10:22;17.40;96.00
44461;DHT22;30162;53.642;10.640;2022-10-18T07:12:48;17.50;96.00
44461;DHT22;30162;53.642;10.640;2022-10-18T07:15:13;17.60;96.00
44461;DHT22;30162;53.642;10.640;2022-10-18T07:17:39;17.60;95.70
44461;DHT22;30162;53.642;10.640;2022-10-18T07:20:06;17.60;95.80
44461;DHT22;30162;53.642;10.640;2022-10-18T07:22:31;17.70;95.70
44461;DHT22;30162;53.642;10.640;2022-10-18T07:24:58;17.60;95.50
44461;DHT22;30162;53.642;10.640;2022-10-18T07:27:23;17.70;95.50
44461;DHT22;30162;53.642;10.640;2022-10-18T07:29:49;17.60;95.70
44461;DHT22;30162;53.642;10.640;2022-10-18T07:32:14;17.70;95.70
44461;DHT22;30162;53.642;10.640;2022-10-18T07:34:40;17.70;95.50
44461;DHT22;30162;53.642;10.640;2022-10-18T07:37:05;17.70;95.80
44461;DHT22;30162;53.642;10.640;2022-10-18T07:39:31;17.70;95.70
44461;DHT22;30162;53.642;10.640;2022-10-18T07:41:56;17.80;95.80
44461;DHT22;30162;53.642;10.640;2022-10-18T07:44:22;17.90;95.80
44461;DHT22;30162;53.642;10.640;2022-10-18T07:46:47;18.00;95.60
44461;DHT22;30162;53.642;10.640;2022-10-18T07:49:13;17.90;95.60
44461;DHT22;30162;53.642;10.640;2022-10-18T07:51:38;18.00;95.50
44461;DHT22;30162;53.642;10.640;2022-10-18T07:54:04;18.00;95.50
44461;DHT22;30162;53.642;10.640;2022-10-18T07:56:29;18.10;95.60
44461;DHT22;30162;53.642;10.640;2022-10-18T07:58:55;18.00;95.40
44461;DHT22;30162;53.642;10.640;2022-10-18T08:01:22;18.10;95.40
44461;DHT22;30162;53.642;10.640;2022-10-18T08:03:48;18.20;95.10
44461;DHT22;30162;53.642;10.640;2022-10-18T08:06:16;18.10;95.10
44461;DHT22;30162;53.642;10.640;2022-10-18T08:08:43;18.10;95.20
44461;DHT22;30162;53.642;10.640;2022-10-18T08:11:14;18.00;94.90
44461;DHT22;30162;53.642;10.640;2022-10-18T08:13:40;18.10;94.80
44461;DHT22;30162;53.642;10.640;2022-10-18T08:16:12;18.00;94.80
44461;DHT22;30162;53.642;10.640;2022-10-18T08:18:38;18.20;95.00
44461;DHT22;30162;53.642;10.640;2022-10-18T08:21:06;17.90;94.90
44461;DHT22;30162;53.642;10.640;2022-10-18T08:23:33;17.80;94.90
44461;DHT22;30162;53.642;10.640;2022-10-18T08:26:04;17.70;95.00
44461;DHT22;30162;53.642;10.640;2022-10-18T08:28:29;17.90;95.30
44461;DHT22;30162;53.642;10.640;2022-10-18T08:30:55;18.20;94.90
44461;DHT22;30162;53.642;10.640;2022-10-18T08:33:21;18.30;94.70
44461;DHT22;30162;53.642;10.640;2022-10-18T08:36:00;18.30;94.50
44461;DHT22;30162;53.642;10.640;2022-10-18T08:38:29;18.20;94.40
44461;DHT22;30162;53.642;10.640;2022-10-18T08:41:37;18.20;94.40
44461;DHT22;30162;53.642;10.640;2022-10-18T08:46:50;18.30;94.60
44461;DHT22;30162;53.642;10.640;2022-10-18T08:49:38;18.30;94.60
44461;DHT22;30162;53.642;10.640;2022-10-18T08:55:15;18.10;94.60
44461;DHT22;30162;53.642;10.640;2022-10-18T08:57:41;18.30;94.50
44461;DHT22;30162;53.642;10.640;2022-10-18T09:00:16;18.50;94.20
44461;DHT22;30162;53.642;10.640;2022-10-18T09:05:53;18.40;94.10
44461;DHT22;30162;53.642;10.640;2022-10-18T09:12:04;18.60;93.80
44461;DHT22;30162;53.642;10.640;2022-10-18T09:25:25;18.50;93.80
44461;DHT22;30162;53.642;10.640;2022-10-18T09:31:03;18.60;93.90
44461;DHT22;30162;53.642;10.640;2022-10-18T09:33:47;18.70;94.00
44461;DHT22;30162;53.642;10.640;2022-10-18T09:36:15;18.70;93.70
44461;DHT22;30162;53.642;10.640;2022-10-18T09:38:46;18.80;93.60
44461;DHT22;30162;53.642;10.640;2022-10-18T09:41:17;18.70;93.40
44461;DHT22;30162;53.642;10.640;2022-10-18T09:44:14;18.70;93.50
44461;DHT22;30162;53.642;10.640;2022-10-18T09:46:48;18.60;93.40
44461;DHT22;30162;53.642;10.640;2022-10-18T09:49:23;18.50;93.40
44461;DHT22;30162;53.642;10.640;2022-10-18T09:51:52;18.50;93.50
44461;DHT22;30162;53.642;10.640;2022-10-18T10:02:03;19.10;93.00
44461;DHT22;30162;53.642;10.640;2022-10-18T10:04:29;19.40;93.20
44461;DHT22;30162;53.642;10.640;2022-10-18T10:06:56;19.40;93.10
44461;DHT22;30162;53.642;10.640;2022-10-18T10:09:35;19.70;93.00
44461;DHT22;30162;53.642;10.640;2022-10-18T10:12:01;20.10;92.60
44461;DHT22;30162;53.642;10.640;2022-10-18T10:14:28;20.30;92.40
44461;DHT22;30162;53.642;10.640;2022-10-18T10:17:00;20.70;91.90
44461;DHT22;30162;53.642;10.640;2022-10-18T10:19:34;21.00;91.20
44461;DHT22;30162;53.642;10.640;2022-10-18T10:22:07;21.20;90.60
44461;DHT22;30162;53.642;10.640;2022-10-18T10:24:47;21.30;90.60
44461;DHT22;30162;53.642;10.640;2022-10-18T10:27:17;21.70;90.10
44461;DHT22;30162;53.642;10.640;2022-10-18T10:29:48;21.90;90.10
44461;DHT22;30162;53.642;10.640;2022-10-18T10:32:18;22.00;88.20
44461;DHT22;30162;53.642;10.640;2022-10-18T10:34:44;21.70;89.60
44461;DHT22;30162;53.642;10.640;2022-10-18T10:37:23;22.00;87.70
44461;DHT22;30162;53.642;10.640;2022-10-18T10:42:58;21.90;87.20
44461;DHT22;30162;53.642;10.640;2022-10-18T10:45:27;21.90;88.20
44461;DHT22;30162;53.642;10.640;2022-10-18T10:48:01;21.80;88.40
44461;DHT22;30162;53.642;10.640;2022-10-18T10:50:28;21.30;87.20
44461;DHT22;30162;53.642;10.640;2022-10-18T10:52:54;21.00;88.60
44461;DHT22;30162;53.642;10.640;2022-10-18T10:55:24;20.80;88.30
44461;DHT22;30162;53.642;10.640;2022-10-18T10:57:54;20.40;89.70
44461;DHT22;30162;53.642;10.640;2022-10-18T11:03:19;20.80;89.90
44461;DHT22;30162;53.642;10.640;2022-10-18T11:05:48;21.20;90.00
44461;DHT22;30162;53.642;10.640;2022-10-18T11:08:21;21.50;90.00
44461;DHT22;30162;53.642;10.640;2022-10-18T11:13:48;21.20;88.40
44461;DHT22;30162;53.642;10.640;2022-10-18T11:16:27;21.00;88.90
44461;DHT22;30162;53.642;10.640;2022-10-18T11:18:55;20.80;88.50
44461;DHT22;30162;53.642;10.640;2022-10-18T11:21:25;20.50;86.70
44461;DHT22;30162;53.642;10.640;2022-10-18T11:23:52;20.50;88.40
44461;DHT22;30162;53.642;10.640;2022-10-18T11:26:36;20.80;89.40
44461;DHT22;30162;53.642;10.640;2022-10-18T11:34:59;20.50;84.10
44461;DHT22;30162;53.642;10.640;2022-10-18T11:40:23;20.90;84.60
44461;DHT22;30162;53.642;10.640;2022-10-18T11:45:46;21.10;83.70
44461;DHT22;30162;53.642;10.640;2022-10-18T11:59:37;21.10;82.10
44461;DHT22;30162;53.642;10.640;2022-10-18T12:05:00;21.00;81.10
44461;DHT22;30162;53.642;10.640;2022-10-18T12:07:31;21.10;81.90
44461;DHT22;30162;53.642;10.640;2022-10-18T12:10:00;21.30;81.70
44461;DHT22;30162;53.642;10.640;2022-10-18T12:12:30;21.30;81.70
44461;DHT22;30162;53.642;10.640;2022-10-18T12:15:00;21.30;81.30
44461;DHT22;30162;53.642;10.640;2022-10-18T12:19:58;20.50;80.40
44461;DHT22;30162;53.642;10.640;2022-10-18T12:22:35;20.50;81.60
44461;DHT22;30162;53.642;10.640;2022-10-18T12:25:03;20.20;80.70
44461;DHT22;30162;53.642;10.640;2022-10-18T12:27:53;20.00;80.60
44461;DHT22;30162;53.642;10.640;2022-10-18T12:30:29;20.10;80.20
44461;DHT22;30162;53.642;10.640;2022-10-18T12:33:08;20.10;81.40
44461;DHT22;30162;53.642;10.640;2022-10-18T12:38:36;19.90;81.90
44461;DHT22;30162;53.642;10.640;2022-10-18T12:41:03;20.00;81.60
44461;DHT22;30162;53.642;10.640;2022-10-18T12:43:32;20.40;81.70
44461;DHT22;30162;53.642;10.640;2022-10-18T12:46:04;20.50;81.70
44461;DHT22;30162;53.642;10.640;2022-10-18T12:48:34;20.60;80.90
44461;DHT22;30162;53.642;10.640;2022-10-18T12:51:21;20.50;81.50
44461;DHT22;30162;53.642;10.640;2022-10-18T12:56:37;20.20;81.10
44461;DHT22;30162;53.642;10.640;2022-10-18T13:09:25;20.40;80.20
44461;DHT22;30162;53.642;10.640;2022-10-18T13:14:36;20.50;80.10
44461;DHT22;30162;53.642;10.640;2022-10-18T13:17:33;20.70;81.50
44461;DHT22;30162;53.642;10.640;2022-10-18T13:30:29;20.50;79.60
44461;DHT22;30162;53.642;10.640;2022-10-18T13:33:22;20.30;80.60
44461;DHT22;30162;53.642;10.640;2022-10-18T13:35:54;20.00;80.60
44461;DHT22;30162;53.642;10.640;2022-10-18T13:46:18;19.30;82.30
44461;DHT22;30162;53.642;10.640;2022-10-18T13:48:50;19.20;82.80
44461;DHT22;30162;53.642;10.640;2022-10-18T13:51:37;19.10;82.50
44461;DHT22;30162;53.642;10.640;2022-10-18T13:59:16;19.10;81.90
44461;DHT22;30162;53.642;10.640;2022-10-18T14:07:34;18.60;81.10
44461;DHT22;30162;53.642;10.640;2022-10-18T14:10:01;18.70;82.30
44461;DHT22;30162;53.642;10.640;2022-10-18T14:12:42;19.00;82.20
44461;DHT22;30162;53.642;10.640;2022-10-18T14:15:22;19.00;81.80
44461;DHT22;30162;53.642;10.640;2022-10-18T14:18:14;19.20;82.20
44461;DHT22;30162;53.642;10.640;2022-10-18T14:20:44;19.00;81.50
44461;DHT22;30162;53.642;10.640;2022-10-18T14:23:22;19.20;81.70
44461;DHT22;30162;53.642;10.640;2022-10-18T14:25:48;19.40;82.10
44461;DHT22;30162;53.642;10.640;2022-10-18T14:28:21;19.20;79.40
44461;DHT22;30162;53.642;10.640;2022-10-18T14:30:55;19.30;80.20
44461;DHT22;30162;53.642;10.640;2022-10-18T14:33:36;19.10;80.10
44461;DHT22;30162;53.642;10.640;2022-10-18T14:38:46;19.30;81.60
44461;DHT22;30162;53.642;10.640;2022-10-18T14:41:19;19.50;81.50
44461;DHT22;30162;53.642;10.640;2022-10-18T14:43:45;19.70;81.60
44461;DHT22;30162;53.642;10.640;2022-10-18T14:46:22;19.50;80.80
44461;DHT22;30162;53.642;10.640;2022-10-18T14:48:55;19.60;81.50
44461;DHT22;30162;53.642;10.640;2022-10-18T14:51:22;19.30;82.10
44461;DHT22;30162;53.642;10.640;2022-10-18T14:53:49;19.20;81.90
44461;DHT22;30162;53.642;10.640;2022-10-18T14:56:28;19.30;81.90
44461;DHT22;30162;53.642;10.640;2022-10-18T14:58:55;19.30;81.90
44461;DHT22;30162;53.642;10.640;2022-10-18T15:01:24;19.10;80.40
44461;DHT22;30162;53.642;10.640;2022-10-18T15:04:09;19.10;82.00
44461;DHT22;30162;53.642;10.640;2022-10-18T15:06:43;18.90;81.90
44461;DHT22;30162;53.642;10.640;2022-10-18T15:09:10;18.40;81.80
44461;DHT22;30162;53.642;10.640;2022-10-18T15:11:38;18.30;82.20
44461;DHT22;30162;53.642;10.640;2022-10-18T15:14:09;18.50;83.10
44461;DHT22;30162;53.642;10.640;2022-10-18T15:16:38;18.90;82.90
44461;DHT22;30162;53.642;10.640;2022-10-18T15:19:27;19.10;82.40
44461;DHT22;30162;53.642;10.640;2022-10-18T15:21:56;19.20;82.50
44461;DHT22;30162;53.642;10.640;2022-10-18T15:26:50;19.20;82.30
44461;DHT22;30162;53.642;10.640;2022-10-18T15:29:18;19.10;82.10
44461;DHT22;30162;53.642;10.640;2022-10-18T15:31:44;19.20;82.50
44461;DHT22;30162;53.642;10.640;2022-10-18T15:34:26;19.30;82.50
44461;DHT22;30162;53.642;10.640;2022-10-18T15:36:54;19.40;82.40
44461;DHT22;30162;53.642;10.640;2022-10-18T15:39:27;19.40;82.40
44461;DHT22;30162;53.642;10.640;2022-10-18T15:41:57;19.20;82.80
44461;DHT22;30162;53.642;10.640;2022-10-18T15:44:46;19.10;83.60
44461;DHT22;30162;53.642;10.640;2022-10-18T15:47:17;19.20;83.70
44461;DHT22;30162;53.642;10.640;2022-10-18T15:54:46;18.60;83.70
44461;DHT22;30162;53.642;10.640;2022-10-18T15:57:12;18.50;83.60
44461;DHT22;30162;53.642;10.640;2022-10-18T15:59:51;18.50;83.30
44461;DHT22;30162;53.642;10.640;2022-10-18T16:02:17;18.50;83.30
44461;DHT22;30162;53.642;10.640;2022-10-18T16:04:43;18.40;83.60
44461;DHT22;30162;53.642;10.640;2022-10-18T16:07:10;18.40;83.00
44461;DHT22;30162;53.642;10.640;2022-10-18T16:09:36;18.40;83.10
44461;DHT22;30162;53.642;10.640;2022-10-18T16:12:01;18.40;83.40
44461;DHT22;30162;53.642;10.640;2022-10-18T16:14:28;18.30;83.30
44461;DHT22;30162;53.642;10.640;2022-10-18T16:16:58;18.30;82.50
44461;DHT22;30162;53.642;10.640;2022-10-18T16:19:25;18.20;83.20
44461;DHT22;30162;53.642;10.640;2022-10-18T16:21:51;18.30;82.90
44461;DHT22;30162;53.642;10.640;2022-10-18T16:24:18;18.20;83.10
44461;DHT22;30162;53.642;10.640;2022-10-18T16:26:43;18.20;83.50
44461;DHT22;30162;53.642;10.640;2022-10-18T16:29:12;18.00;83.10
44461;DHT22;30162;53.642;10.640;2022-10-18T16:31:38;18.00;83.40
44461;DHT22;30162;53.642;10.640;2022-10-18T16:34:04;18.00;83.50
44461;DHT22;30162;53.642;10.640;2022-10-18T16:36:32;17.80;83.60
44461;DHT22;30162;53.642;10.640;2022-10-18T16:39:01;17.70;83.60
44461;DHT22;30162;53.642;10.640;2022-10-18T16:41:27;17.60;83.70
44461;DHT22;30162;53.642;10.640;2022-10-18T16:43:52;17.50;84.40
44461;DHT22;30162;53.642;10.640;2022-10-18T16:46:26;17.50;84.00
44461;DHT22;30162;53.642;10.640;2022-10-18T16:48:53;17.50;83.80
44461;DHT22;30162;53.642;10.640;2022-10-18T16:51:19;17.30;83.80
44461;DHT22;30162;53.642;10.640;2022-10-18T16:53:45;17.20;82.80
44461;DHT22;30162;53.642;10.640;2022-10-18T16:56:16;17.20;83.50
44461;DHT22;30162;53.642;10.640;2022-10-18T16:58:43;17.20;83.10
44461;DHT22;30162;53.642;10.640;2022-10-18T17:01:14;17.20;83.20
44461;DHT22;30162;53.642;10.640;2022-10-18T17:03:40;17.10;82.20
44461;DHT22;30162;53.642;10.640;2022-10-18T17:06:18;17.00;81.90
44461;DHT22;30162;53.642;10.640;2022-10-18T17:08:44;17.00;81.50
44461;DHT22;30162;53.642;10.640;2022-10-18T17:11:11;17.10;80.90
44461;DHT22;30162;53.642;10.640;2022-10-18T17:13:37;17.00;80.50
44461;DHT22;30162;53.642;10.640;2022-10-18T17:16:03;17.30;81.00
44461;DHT22;30162;53.642;10.640;2022-10-18T17:18:29;17.40;80.90
44461;DHT22;30162;53.642;10.640;2022-10-18T17:20:59;17.40;80.80
44461;DHT22;30162;53.642;10.640;2022-10-18T17:23:28;17.60;81.00
44461;DHT22;30162;53.642;10.640;2022-10-18T17:25:53;17.70;80.90
44461;DHT22;30162;53.642;10.640;2022-10-18T17:28:20;17.50;80.80
44461;DHT22;30162;53.642;10.640;2022-10-18T17:30:46;17.50;81.70
44461;DHT22;30162;53.642;10.640;2022-10-18T17:33:13;17.60;82.20
44461;DHT22;30162;53.642;10.640;2022-10-18T17:35:39;17.50;81.00
44461;DHT22;30162;53.642;10.640;2022-10-18T17:38:06;17.60;81.70
44461;DHT22;30162;53.642;10.640;2022-10-18T17:40:32;17.60;82.10
44461;DHT22;30162;53.642;10.640;2022-10-18T17:42:58;17.50;82.00
44461;DHT22;30162;53.642;10.640;2022-10-18T17:45:24;17.50;82.20
44461;DHT22;30162;53.642;10.640;2022-10-18T17:47:50;17.80;82.70
44461;DHT22;30162;53.642;10.640;2022-10-18T17:50:16;17.70;83.00
44461;DHT22;30162;53.642;10.640;2022-10-18T17:52:46;17.70;83.50
44461;DHT22;30162;53.642;10.640;2022-10-18T17:55:13;17.70;83.00